Time;durP1;ratioP1;P1;durP2;ratioP2;P2;SDS_P1;SDS_P2;PMS_P1;PMS_P2;Temp;Humidity;BMP_temperature;BMP_pressure;BME280_temperature;BME280_humidity;BME280_pressure;Samples;Min_cycle;Max_cycle;Signal;HPM_P1;HPM_P2
2023/06/14 00:00:20;;;;;;;0.88;0.50;;;;;;;;;;5000727;28;58781;-62
2023/06/14 00:02:45;;;;;;;0.20;0.17;;;;;;;;;;5001442;28;58642;-60
2023/06/14 00:05:11;;;;;;;0.70;0.50;;;;;;;;;;5002970;28;58866;-61
2023/06/14 00:07:44;;;;;;;1.25;0.68;;;;;;;;;;5001894;28;58509;-62
2023/06/14 00:10:10;;;;;;;0.35;0.35;;;;;;;;;;5003736;28;58951;-62
2023/06/14 00:12:36;;;;;;;0.25;0.25;;;;;;;;;;5004517;28;58757;-64
2023/06/14 00:15:02;;;;;;;0.70;0.70;;;;;;;;;;5005231;28;58385;-64
2023/06/14 00:17:30;;;;;;;0.35;0.35;;;;;;;;;;5003011;28;58575;-62
2023/06/14 00:19:56;;;;;;;0.55;0.30;;;;;;;;;;5004808;28;59141;-62
2023/06/14 00:22:24;;;;;;;0.60;0.60;;;;;;;;;;5006119;28;58879;-60
2023/06/14 00:24:49;;;;;;;0.40;0.40;;;;;;;;;;5006095;28;58938;-62
2023/06/14 00:27:14;;;;;;;0.77;0.30;;;;;;;;;;5005753;28;58888;-62
2023/06/14 00:29:39;;;;;;;0.50;0.45;;;;;;;;;;5008846;28;58617;-62
2023/06/14 00:32:04;;;;;;;0.60;0.60;;;;;;;;;;5006117;28;58884;-64
2023/06/14 00:34:30;;;;;;;0.53;0.53;;;;;;;;;;5006342;28;59659;-64
2023/06/14 00:36:55;;;;;;;0.40;0.40;;;;;;;;;;5007133;28;58992;-64
2023/06/14 00:39:20;;;;;;;1.10;0.28;;;;;;;;;;5007101;28;58489;-64
2023/06/14 00:41:45;;;;;;;0.50;0.50;;;;;;;;;;5007554;28;58744;-64
2023/06/14 00:44:11;;;;;;;0.33;0.33;;;;;;;;;;5006760;28;58521;-64
2023/06/14 00:46:36;;;;;;;0.40;0.40;;;;;;;;;;5003390;28;58467;-64
2023/06/14 00:49:01;;;;;;;0.50;0.50;;;;;;;;;;5005803;28;58439;-62
2023/06/14 00:51:27;;;;;;;0.60;0.40;;;;;;;;;;5002008;28;58857;-62
2023/06/14 00:53:52;;;;;;;0.30;0.30;;;;;;;;;;5005488;28;58561;-62
2023/06/14 00:56:20;;;;;;;0.50;0.50;;;;;;;;;;5005539;28;59018;-62
2023/06/14 00:58:45;;;;;;;1.05;0.55;;;;;;;;;;5003076;28;58557;-62
2023/06/14 01:01:14;;;;;;;0.60;0.60;;;;;;;;;;5004361;28;58720;-61
2023/06/14 01:03:40;;;;;;;0.32;0.32;;;;;;;;;;5003008;28;58829;-61
2023/06/14 01:06:26;;;;;;;0.52;0.52;;;;;;;;;;5002825;28;59588;-61
2023/06/14 01:08:56;;;;;;;0.60;0.60;;;;;;;;;;5005378;28;58535;-61
2023/06/14 01:11:24;;;;;;;0.43;0.43;;;;;;;;;;5003635;28;63281;-59
2023/06/14 01:13:50;;;;;;;;;;;;;;;;;;5004251;28;58478;-61
2023/06/14 01:16:15;;;;;;;0.45;0.32;;;;;;;;;;5007247;28;59378;-60
2023/06/14 01:18:41;;;;;;;0.50;0.50;;;;;;;;;;5004501;28;58329;-61
2023/06/14 01:21:20;;;;;;;0.90;0.90;;;;;;;;;;5006134;28;58339;-61
2023/06/14 01:23:45;;;;;;;0.68;0.60;;;;;;;;;;5003396;28;59747;-61
2023/06/14 01:26:10;;;;;;;0.53;0.30;;;;;;;;;;5005249;28;58678;-60
2023/06/14 01:28:36;;;;;;;0.35;0.30;;;;;;;;;;5005048;28;58192;-61
2023/06/14 01:31:04;;;;;;;0.40;0.40;;;;;;;;;;5003207;28;59027;-61
2023/06/14 01:33:29;;;;;;;;;;;;;;;;;;5003737;28;58651;-60
2023/06/14 01:35:55;;;;;;;0.40;0.40;;;;;;;;;;5007469;28;58426;-61
2023/06/14 01:38:22;;;;;;;1.95;0.30;;;;;;;;;;5002569;28;58860;-61
2023/06/14 01:40:47;;;;;;;0.93;0.50;;;;;;;;;;5005024;28;58410;-61
2023/06/14 01:43:14;;;;;;;0.28;0.28;;;;;;;;;;5004991;28;61280;-61
2023/06/14 01:45:40;;;;;;;0.50;0.50;;;;;;;;;;5003054;28;58710;-61
2023/06/14 01:48:05;;;;;;;0.50;0.50;;;;;;;;;;5002567;28;58415;-61
2023/06/14 01:50:31;;;;;;;0.30;0.30;;;;;;;;;;5004049;28;59751;-61
2023/06/14 01:52:56;;;;;;;0.50;0.50;;;;;;;;;;5003684;28;59371;-60
2023/06/14 01:55:21;;;;;;;0.50;0.50;;;;;;;;;;5006072;28;58515;-61
2023/06/14 01:57:46;;;;;;;0.30;0.30;;;;;;;;;;5000015;28;58590;-61
2023/06/14 02:00:12;;;;;;;0.50;0.40;;;;;;;;;;5002731;28;58673;-61
2023/06/14 02:02:37;;;;;;;0.57;0.52;;;;;;;;;;5002138;28;59172;-62
2023/06/14 02:05:03;;;;;;;0.37;0.37;;;;;;;;;;5001807;28;58736;-62
2023/06/14 02:07:29;;;;;;;0.30;0.30;;;;;;;;;;5000359;28;58595;-62
2023/06/14 02:09:54;;;;;;;0.70;0.70;;;;;;;;;;5002974;28;59199;-61
2023/06/14 02:12:19;;;;;;;0.50;0.50;;;;;;;;;;4999308;28;58690;-62
2023/06/14 02:14:44;;;;;;;0.43;0.43;;;;;;;;;;5002253;28;58544;-62
2023/06/14 02:17:09;;;;;;;0.50;0.50;;;;;;;;;;5001329;28;58856;-59
2023/06/14 02:19:34;;;;;;;0.60;0.60;;;;;;;;;;4999937;28;58817;-62
2023/06/14 02:22:00;;;;;;;0.30;0.30;;;;;;;;;;5000373;28;58503;-62
2023/06/14 02:24:25;;;;;;;0.47;0.30;;;;;;;;;;4996250;28;58966;-62
2023/06/14 02:26:50;;;;;;;0.57;0.50;;;;;;;;;;4999008;28;58492;-62
2023/06/14 02:29:16;;;;;;;0.40;0.40;;;;;;;;;;5000953;28;58824;-62
2023/06/14 02:31:41;;;;;;;0.68;0.40;;;;;;;;;;5002053;28;58585;-62
2023/06/14 02:34:08;;;;;;;0.50;0.50;;;;;;;;;;4999299;28;58699;-62
2023/06/14 02:36:33;;;;;;;0.40;0.30;;;;;;;;;;4997587;28;59265;-63
2023/06/14 02:38:59;;;;;;;0.73;0.33;;;;;;;;;;4998545;28;58876;-62
2023/06/14 02:41:24;;;;;;;0.40;0.40;;;;;;;;;;5000827;28;59211;-62
2023/06/14 02:43:49;;;;;;;0.60;0.60;;;;;;;;;;5000904;28;58829;-62
2023/06/14 02:46:15;;;;;;;0.40;0.40;;;;;;;;;;4997616;28;58338;-62
2023/06/14 02:48:40;;;;;;;0.50;0.47;;;;;;;;;;5000286;28;58763;-62
2023/06/14 02:51:06;;;;;;;0.33;0.33;;;;;;;;;;5001089;28;59005;-62
2023/06/14 02:53:31;;;;;;;0.55;0.50;;;;;;;;;;5000317;28;58499;-62
2023/06/14 02:55:57;;;;;;;0.50;0.50;;;;;;;;;;4999731;28;58841;-62
2023/06/14 02:58:24;;;;;;;0.82;0.38;;;;;;;;;;4999631;28;58665;-62
2023/06/14 03:00:52;;;;;;;1.45;0.40;;;;;;;;;;5001345;28;58611;-62
2023/06/14 03:03:18;;;;;;;0.68;0.63;;;;;;;;;;4998804;28;58606;-62
2023/06/14 03:05:45;;;;;;;0.43;0.43;;;;;;;;;;5000120;28;58678;-60
2023/06/14 03:08:15;;;;;;;0.50;0.50;;;;;;;;;;4998555;28;60051;-62
2023/06/14 03:10:43;;;;;;;0.45;0.45;;;;;;;;;;4999400;28;58838;-62
2023/06/14 03:13:08;;;;;;;0.55;0.55;;;;;;;;;;5000037;28;58693;-62
2023/06/14 03:15:33;;;;;;;0.40;0.40;;;;;;;;;;4997464;28;58932;-61
2023/06/14 03:17:59;;;;;;;0.70;0.70;;;;;;;;;;4999559;28;58420;-61
2023/06/14 03:20:28;;;;;;;0.70;0.47;;;;;;;;;;4997894;28;58341;-62
2023/06/14 03:22:54;;;;;;;0.50;0.50;;;;;;;;;;4998044;28;58831;-62
2023/06/14 03:25:19;;;;;;;1.75;0.60;;;;;;;;;;4999234;28;59152;-62
2023/06/14 03:27:45;;;;;;;0.40;0.40;;;;;;;;;;4997771;28;58513;-60
2023/06/14 03:30:10;;;;;;;0.35;0.35;;;;;;;;;;4997741;28;58307;-62
2023/06/14 03:32:35;;;;;;;0.35;0.35;;;;;;;;;;4997052;28;58922;-62
2023/06/14 03:35:00;;;;;;;0.98;0.50;;;;;;;;;;4999764;28;59300;-61
2023/06/14 03:37:25;;;;;;;0.30;0.30;;;;;;;;;;4998435;28;59317;-62
2023/06/14 03:39:51;;;;;;;0.45;0.45;;;;;;;;;;5001238;28;58450;-62
2023/06/14 03:42:16;;;;;;;0.45;0.45;;;;;;;;;;4997123;28;58955;-62
2023/06/14 03:44:41;;;;;;;0.47;0.40;;;;;;;;;;5000438;28;58656;-62
2023/06/14 03:47:07;;;;;;;0.50;0.50;;;;;;;;;;5000900;28;58514;-62
2023/06/14 03:49:32;;;;;;;0.73;0.70;;;;;;;;;;5000877;28;58442;-62
2023/06/14 03:51:57;;;;;;;0.30;0.30;;;;;;;;;;5002557;28;58531;-61
2023/06/14 03:54:23;;;;;;;0.50;0.50;;;;;;;;;;4999876;28;58482;-61
2023/06/14 03:56:48;;;;;;;0.30;0.30;;;;;;;;;;5001298;28;58417;-62
2023/06/14 03:59:13;;;;;;;0.90;0.40;;;;;;;;;;5001619;28;58656;-62
2023/06/14 04:01:45;;;;;;;0.60;0.60;;;;;;;;;;5002569;28;59306;-62
2023/06/14 04:04:10;;;;;;;0.70;0.30;;;;;;;;;;5002860;28;58846;-62
2023/06/14 04:06:36;;;;;;;0.37;0.37;;;;;;;;;;5003246;28;58722;-62
2023/06/14 04:09:02;;;;;;;0.60;0.60;;;;;;;;;;5002534;28;58606;-62
2023/06/14 04:11:27;;;;;;;0.30;0.30;;;;;;;;;;5002721;28;58513;-62
2023/06/14 04:13:53;;;;;;;0.35;0.35;;;;;;;;;;5005007;28;58707;-62
2023/06/14 04:16:18;;;;;;;0.52;0.52;;;;;;;;;;5002156;28;58572;-61
2023/06/14 04:18:44;;;;;;;0.67;0.50;;;;;;;;;;5002869;28;58543;-62
2023/06/14 04:21:09;;;;;;;0.40;0.40;;;;;;;;;;5001309;28;58966;-62
2023/06/14 04:23:34;;;;;;;0.60;0.40;;;;;;;;;;5004297;28;60710;-61
2023/06/14 04:26:02;;;;;;;0.50;0.50;;;;;;;;;;5004167;28;58695;-62
2023/06/14 04:28:27;;;;;;;0.40;0.40;;;;;;;;;;4998029;28;58551;-59
2023/06/14 04:30:53;;;;;;;2.10;1.90;;;;;;;;;;5002364;28;58138;-64
2023/06/14 04:33:18;;;;;;;6.00;1.88;;;;;;;;;;5002676;28;57973;-64
2023/06/14 04:35:47;;;;;;;5.97;1.70;;;;;;;;;;5002389;28;58449;-64
2023/06/14 04:38:12;;;;;;;3.97;2.67;;;;;;;;;;5001279;28;58538;-64
2023/06/14 04:40:42;;;;;;;6.10;2.63;;;;;;;;;;5001578;28;59791;-64
2023/06/14 04:43:08;;;;;;;4.20;1.52;;;;;;;;;;5003373;28;58446;-64
2023/06/14 04:45:33;;;;;;;3.95;1.83;;;;;;;;;;5004261;28;58695;-67
2023/06/14 04:47:59;;;;;;;10.80;2.28;;;;;;;;;;5004358;28;58392;-61
2023/06/14 04:50:24;;;;;;;6.20;3.08;;;;;;;;;;5005886;28;58472;-58
2023/06/14 04:52:51;;;;;;;5.20;2.60;;;;;;;;;;5003212;28;58818;-60
2023/06/14 04:55:16;;;;;;;5.88;2.80;;;;;;;;;;5005014;28;58359;-59
2023/06/14 04:57:41;;;;;;;4.15;2.40;;;;;;;;;;5007116;28;58422;-61
2023/06/14 05:00:07;;;;;;;6.25;2.53;;;;;;;;;;5008106;28;58594;-60
2023/06/14 05:02:32;;;;;;;4.78;2.20;;;;;;;;;;5007011;28;58793;-61
2023/06/14 05:04:58;;;;;;;4.32;2.40;;;;;;;;;;5008164;28;58580;-61
2023/06/14 05:07:24;;;;;;;6.68;2.60;;;;;;;;;;5006412;28;58824;-61
2023/06/14 05:09:49;;;;;;;3.70;1.70;;;;;;;;;;5008734;28;58928;-61
2023/06/14 05:12:18;;;;;;;7.43;2.10;;;;;;;;;;5009235;28;58800;-60
2023/06/14 05:14:43;;;;;;;1.63;1.30;;;;;;;;;;5006238;28;58413;-61
2023/06/14 05:17:09;;;;;;;2.75;1.60;;;;;;;;;;5008588;28;58717;-61
2023/06/14 05:19:34;;;;;;;7.35;1.30;;;;;;;;;;5008847;28;59141;-59
2023/06/14 05:21:59;;;;;;;1.67;1.53;;;;;;;;;;5009203;28;58600;-61
2023/06/14 05:24:25;;;;;;;2.50;1.75;;;;;;;;;;5000034;28;58804;-61
2023/06/14 05:26:50;;;;;;;3.65;1.73;;;;;;;;;;5007897;28;59762;-59
2023/06/14 05:29:15;;;;;;;6.00;1.80;;;;;;;;;;5005458;28;61960;-59
2023/06/14 05:31:40;;;;;;;2.13;1.67;;;;;;;;;;5008663;28;58401;-60
2023/06/14 05:34:06;;;;;;;3.50;1.57;;;;;;;;;;5007099;28;58537;-60
2023/06/14 05:36:31;;;;;;;2.17;1.50;;;;;;;;;;5006253;28;58458;-61
2023/06/14 05:38:59;;;;;;;2.37;1.33;;;;;;;;;;5010014;28;59004;-61
2023/06/14 05:41:27;;;;;;;2.63;2.15;;;;;;;;;;5007700;28;63849;-60
2023/06/14 05:43:53;;;;;;;3.72;1.45;;;;;;;;;;5007098;28;58281;-61
2023/06/14 05:46:22;;;;;;;2.65;1.67;;;;;;;;;;5006331;28;59868;-61
2023/06/14 05:48:47;;;;;;;1.23;1.13;;;;;;;;;;5017457;28;58490;-60
2023/06/14 05:51:12;;;;;;;2.00;1.20;;;;;;;;;;5009402;28;58477;-61
2023/06/14 05:53:37;;;;;;;2.05;1.45;;;;;;;;;;5006538;28;58687;-61
2023/06/14 05:56:02;;;;;;;1.92;1.30;;;;;;;;;;5007130;28;58444;-61
2023/06/14 05:58:27;;;;;;;3.70;1.90;;;;;;;;;;5008183;28;58948;-61
2023/06/14 06:00:53;;;;;;;1.98;1.13;;;;;;;;;;5005077;28;58749;-61
2023/06/14 06:03:18;;;;;;;2.83;1.30;;;;;;;;;;5006739;28;58496;-59
2023/06/14 06:05:43;;;;;;;4.90;1.50;;;;;;;;;;5007024;28;58410;-61
2023/06/14 06:08:13;;;;;;;2.70;1.23;;;;;;;;;;5005608;28;58171;-61
2023/06/14 06:10:38;;;;;;;1.88;1.77;;;;;;;;;;5004777;28;58589;-60
2023/06/14 06:13:03;;;;;;;3.22;1.65;;;;;;;;;;5006938;28;58491;-60
2023/06/14 06:15:28;;;;;;;1.05;0.98;;;;;;;;;;5006772;28;58461;-59
2023/06/14 06:17:53;;;;;;;1.45;1.10;;;;;;;;;;5008046;28;58903;-59
2023/06/14 06:20:18;;;;;;;1.42;1.30;;;;;;;;;;5008077;28;58562;-60
2023/06/14 06:22:44;;;;;;;1.23;1.13;;;;;;;;;;5007428;28;58374;-59
2023/06/14 06:25:09;;;;;;;1.23;1.08;;;;;;;;;;5008978;28;58592;-59
2023/06/14 06:27:37;;;;;;;2.78;1.25;;;;;;;;;;5004873;28;58497;-58
2023/06/14 06:30:03;;;;;;;1.80;1.40;;;;;;;;;;5007571;28;58590;-59
2023/06/14 06:32:28;;;;;;;1.83;1.50;;;;;;;;;;5006675;28;58833;-59
2023/06/14 06:34:53;;;;;;;1.77;0.90;;;;;;;;;;5007832;28;58515;-59
2023/06/14 06:37:19;;;;;;;1.55;1.42;;;;;;;;;;5007500;28;58714;-59
2023/06/14 06:39:44;;;;;;;1.52;1.35;;;;;;;;;;5005573;28;58950;-59
2023/06/14 06:42:10;;;;;;;1.73;0.90;;;;;;;;;;5013449;28;58847;-59
2023/06/14 06:44:35;;;;;;;2.20;1.58;;;;;;;;;;5007476;28;59782;-59
2023/06/14 06:47:01;;;;;;;0.93;0.83;;;;;;;;;;5007058;28;58522;-59
2023/06/14 06:49:26;;;;;;;1.90;1.17;;;;;;;;;;5006467;28;58876;-59
2023/06/14 06:52:17;;;;;;;1.48;1.17;;;;;;;;;;5007608;28;58255;-59
2023/06/14 06:54:43;;;;;;;3.88;1.45;;;;;;;;;;5004496;28;58763;-58
2023/06/14 06:57:08;;;;;;;1.30;1.07;;;;;;;;;;5008427;28;58680;-58
2023/06/14 06:59:33;;;;;;;1.43;1.00;;;;;;;;;;5007538;28;58540;-59
2023/06/14 07:01:58;;;;;;;1.77;1.10;;;;;;;;;;5007064;28;58657;-59
2023/06/14 07:04:23;;;;;;;3.08;1.27;;;;;;;;;;5006551;28;58239;-59
2023/06/14 07:06:49;;;;;;;1.43;1.00;;;;;;;;;;5005867;28;58619;-59
2023/06/14 07:09:17;;;;;;;2.35;1.35;;;;;;;;;;5007328;28;58728;-61
2023/06/14 07:11:43;;;;;;;1.10;1.00;;;;;;;;;;5006266;28;60193;-59
2023/06/14 07:14:08;;;;;;;1.17;1.08;;;;;;;;;;5007493;28;58397;-61
2023/06/14 07:16:33;;;;;;;1.30;1.20;;;;;;;;;;5007707;28;58161;-61
2023/06/14 07:18:58;;;;;;;1.23;1.02;;;;;;;;;;5004990;28;58373;-60
2023/06/14 07:21:25;;;;;;;1.10;1.00;;;;;;;;;;5004646;28;58440;-61
2023/06/14 07:23:50;;;;;;;2.55;1.75;;;;;;;;;;5005399;28;59084;-61
2023/06/14 07:26:16;;;;;;;1.83;1.30;;;;;;;;;;5006815;28;58640;-61
2023/06/14 07:28:44;;;;;;;1.35;1.25;;;;;;;;;;5006528;28;58694;-61
2023/06/14 07:31:09;;;;;;;1.40;1.30;;;;;;;;;;5006487;28;58474;-61
2023/06/14 07:33:35;;;;;;;1.10;1.00;;;;;;;;;;5006030;28;58397;-61
2023/06/14 07:36:00;;;;;;;1.48;1.10;;;;;;;;;;5006237;28;58443;-61
2023/06/14 07:38:25;;;;;;;0.80;0.70;;;;;;;;;;5005081;28;58274;-61
2023/06/14 07:40:50;;;;;;;1.35;1.25;;;;;;;;;;5007852;28;58381;-61
2023/06/14 07:43:16;;;;;;;0.70;0.70;;;;;;;;;;5006306;28;59160;-61
2023/06/14 07:45:41;;;;;;;0.70;0.70;;;;;;;;;;5003726;28;59529;-61
2023/06/14 07:48:06;;;;;;;1.97;1.33;;;;;;;;;;5006097;28;58465;-60
2023/06/14 07:50:32;;;;;;;1.02;1.02;;;;;;;;;;5007093;28;58682;-61
2023/06/14 07:52:57;;;;;;;2.05;1.40;;;;;;;;;;5005158;28;58516;-61
2023/06/14 07:55:22;;;;;;;0.85;0.85;;;;;;;;;;5005724;28;58761;-61
2023/06/14 07:57:47;;;;;;;1.33;0.88;;;;;;;;;;5006376;28;58697;-61
2023/06/14 08:00:15;;;;;;;0.77;0.77;;;;;;;;;;5004761;28;58425;-60
2023/06/14 08:02:40;;;;;;;0.77;0.77;;;;;;;;;;5006419;28;59142;-59
2023/06/14 08:05:06;;;;;;;0.73;0.60;;;;;;;;;;5004871;28;58565;-61
2023/06/14 08:07:31;;;;;;;1.52;1.25;;;;;;;;;;5006578;28;58735;-60
2023/06/14 08:09:56;;;;;;;0.80;0.75;;;;;;;;;;5007013;28;58748;-59
2023/06/14 08:12:22;;;;;;;0.90;0.90;;;;;;;;;;5006997;28;58463;-61
2023/06/14 08:14:47;;;;;;;1.23;0.95;;;;;;;;;;5005230;28;58309;-61
2023/06/14 08:17:12;;;;;;;1.13;0.93;;;;;;;;;;5005995;28;58907;-60
2023/06/14 08:19:37;;;;;;;0.77;0.73;;;;;;;;;;5005111;28;59304;-61
2023/06/14 08:22:03;;;;;;;0.75;0.75;;;;;;;;;;5006379;28;58279;-60
2023/06/14 08:24:29;;;;;;;2.08;0.93;;;;;;;;;;5003723;28;58287;-61
2023/06/14 08:26:54;;;;;;;0.85;0.85;;;;;;;;;;5007197;28;58801;-61
2023/06/14 08:29:19;;;;;;;0.95;0.60;;;;;;;;;;5006872;28;58840;-62
2023/06/14 08:31:44;;;;;;;0.70;0.70;;;;;;;;;;5008743;28;59346;-61
2023/06/14 08:34:09;;;;;;;0.50;0.50;;;;;;;;;;5009875;28;58688;-60
2023/06/14 08:36:35;;;;;;;1.60;1.00;;;;;;;;;;5010044;28;58633;-61
2023/06/14 08:39:00;;;;;;;1.58;1.15;;;;;;;;;;5008352;28;58713;-59
2023/06/14 08:41:27;;;;;;;1.03;0.93;;;;;;;;;;5010702;28;58346;-60
2023/06/14 08:43:52;;;;;;;2.03;0.90;;;;;;;;;;5009589;28;58727;-60
2023/06/14 08:46:19;;;;;;;0.93;0.77;;;;;;;;;;5009155;28;58754;-61
2023/06/14 08:48:45;;;;;;;0.65;0.65;;;;;;;;;;5010057;28;58912;-60
2023/06/14 08:51:11;;;;;;;0.90;0.75;;;;;;;;;;5008419;28;58396;-60
2023/06/14 08:53:41;;;;;;;0.70;0.70;;;;;;;;;;5008992;28;58389;-61
2023/06/14 08:56:13;;;;;;;0.75;0.75;;;;;;;;;;5010221;28;58938;-61
2023/06/14 08:58:43;;;;;;;1.42;1.15;;;;;;;;;;5007587;28;58696;-61
2023/06/14 09:01:11;;;;;;;2.58;0.90;;;;;;;;;;5010039;28;58733;-60
2023/06/14 09:03:40;;;;;;;1.52;0.90;;;;;;;;;;5007893;28;58786;-61
2023/06/14 09:06:08;;;;;;;0.70;0.70;;;;;;;;;;5008751;28;58500;-61
2023/06/14 09:08:34;;;;;;;0.95;0.95;;;;;;;;;;5010158;28;58509;-61
2023/06/14 09:11:01;;;;;;;0.68;0.60;;;;;;;;;;5008187;28;58430;-61
2023/06/14 09:13:26;;;;;;;1.35;0.95;;;;;;;;;;5007950;28;58838;-60
2023/06/14 09:15:51;;;;;;;1.33;1.20;;;;;;;;;;5009279;28;59005;-59
2023/06/14 09:18:16;;;;;;;0.77;0.77;;;;;;;;;;5007884;28;58429;-59
2023/06/14 09:20:41;;;;;;;0.70;0.70;;;;;;;;;;5010168;28;58613;-59
2023/06/14 09:23:07;;;;;;;1.17;0.80;;;;;;;;;;5007103;28;59469;-59
2023/06/14 09:25:33;;;;;;;0.90;0.75;;;;;;;;;;5008120;28;58750;-59
2023/06/14 09:27:58;;;;;;;0.98;0.70;;;;;;;;;;5009110;28;58514;-60
2023/06/14 09:30:23;;;;;;;0.67;0.67;;;;;;;;;;5007567;28;58719;-57
2023/06/14 09:32:48;;;;;;;0.70;0.70;;;;;;;;;;5008868;28;58434;-59
2023/06/14 09:35:17;;;;;;;0.88;0.80;;;;;;;;;;5009576;28;58506;-59
2023/06/14 09:37:42;;;;;;;1.35;0.52;;;;;;;;;;5006336;28;58941;-59
2023/06/14 09:40:08;;;;;;;1.73;0.70;;;;;;;;;;5008894;28;58339;-59
2023/06/14 09:42:35;;;;;;;0.60;0.60;;;;;;;;;;5006246;28;59025;-58
2023/06/14 09:45:01;;;;;;;1.40;0.80;;;;;;;;;;5008772;28;58499;-60
2023/06/14 09:47:26;;;;;;;0.75;0.75;;;;;;;;;;5009528;28;58775;-59
2023/06/14 09:49:54;;;;;;;0.70;0.70;;;;;;;;;;5009568;28;58759;-59
2023/06/14 09:52:20;;;;;;;0.60;0.60;;;;;;;;;;5008237;28;58338;-59
2023/06/14 09:54:46;;;;;;;0.88;0.68;;;;;;;;;;5008933;28;58980;-58
2023/06/14 09:57:12;;;;;;;1.17;0.95;;;;;;;;;;5007366;28;58407;-59
2023/06/14 09:59:39;;;;;;;0.80;0.80;;;;;;;;;;5009094;28;58427;-59
2023/06/14 10:02:07;;;;;;;1.20;0.98;;;;;;;;;;5009163;28;58469;-59
2023/06/14 10:04:33;;;;;;;1.00;1.00;;;;;;;;;;5006527;28;58433;-59
2023/06/14 10:06:59;;;;;;;0.93;0.93;;;;;;;;;;5008694;28;58255;-59
2023/06/14 10:09:25;;;;;;;0.88;0.80;;;;;;;;;;5009008;28;58723;-59
2023/06/14 10:11:50;;;;;;;1.00;0.90;;;;;;;;;;5007672;28;58400;-59
2023/06/14 10:14:16;;;;;;;1.10;1.00;;;;;;;;;;5007838;28;60050;-61
2023/06/14 10:16:49;;;;;;;0.63;0.63;;;;;;;;;;5006454;28;58622;-57
2023/06/14 10:19:18;;;;;;;2.03;1.10;;;;;;;;;;5007749;28;58559;-61
2023/06/14 10:21:52;;;;;;;1.05;0.85;;;;;;;;;;5013571;28;58649;-61
2023/06/14 10:24:19;;;;;;;0.82;0.55;;;;;;;;;;5004230;28;58628;-61
2023/06/14 10:26:54;;;;;;;0.80;0.80;;;;;;;;;;5008718;28;58700;-61
2023/06/14 10:29:19;;;;;;;2.05;0.73;;;;;;;;;;5007784;28;58957;-61
2023/06/14 10:31:48;;;;;;;0.70;0.70;;;;;;;;;;5007902;28;58348;-60
2023/06/14 10:34:24;;;;;;;0.73;0.73;;;;;;;;;;5008546;28;58589;-61
2023/06/14 10:37:01;;;;;;;0.90;0.90;;;;;;;;;;5007243;28;58861;-61
2023/06/14 10:39:26;;;;;;;1.25;0.88;;;;;;;;;;5006757;28;58533;-61
2023/06/14 10:41:55;;;;;;;0.93;0.87;;;;;;;;;;5008156;28;58409;-61
2023/06/14 10:44:20;;;;;;;1.33;0.98;;;;;;;;;;5007282;28;58741;-61
2023/06/14 10:46:46;;;;;;;0.63;0.50;;;;;;;;;;5008572;28;58810;-61
2023/06/14 10:49:11;;;;;;;0.63;0.63;;;;;;;;;;5008058;28;58872;-60
2023/06/14 10:51:46;;;;;;;1.20;0.70;;;;;;;;;;5006840;28;58222;-61
2023/06/14 10:54:12;;;;;;;0.82;0.82;;;;;;;;;;5007166;28;58596;-61
2023/06/14 10:56:37;;;;;;;2.03;0.80;;;;;;;;;;5008268;28;58658;-62
2023/06/14 10:59:02;;;;;;;1.00;0.98;;;;;;;;;;5008351;28;58839;-61
2023/06/14 11:01:41;;;;;;;2.08;1.35;;;;;;;;;;5008422;28;58563;-61
2023/06/14 11:04:08;;;;;;;0.55;0.50;;;;;;;;;;5005132;28;60317;-62
2023/06/14 11:06:42;;;;;;;1.08;1.02;;;;;;;;;;5008012;28;58790;-61
2023/06/14 11:09:26;;;;;;;0.75;0.75;;;;;;;;;;5005126;28;59077;-61
2023/06/14 11:11:53;;;;;;;0.85;0.85;;;;;;;;;;5008552;28;58567;-61
2023/06/14 11:14:19;;;;;;;0.60;0.60;;;;;;;;;;5004513;28;58371;-61
2023/06/14 11:16:47;;;;;;;0.60;0.60;;;;;;;;;;5008548;28;58637;-59
2023/06/14 11:19:12;;;;;;;1.50;1.10;;;;;;;;;;5004311;28;58466;-58
2023/06/14 11:21:40;;;;;;;0.93;0.63;;;;;;;;;;5007065;28;58634;-60
2023/06/14 11:24:10;;;;;;;0.70;0.60;;;;;;;;;;5005379;28;58553;-59
2023/06/14 11:26:37;;;;;;;0.88;0.60;;;;;;;;;;5006278;28;58680;-59
2023/06/14 11:29:02;;;;;;;1.67;1.03;;;;;;;;;;5006510;28;58686;-59
2023/06/14 11:31:28;;;;;;;0.90;0.70;;;;;;;;;;5006818;28;58429;-59
2023/06/14 11:33:54;;;;;;;0.98;0.90;;;;;;;;;;5006895;28;58397;-59
2023/06/14 11:36:19;;;;;;;0.60;0.60;;;;;;;;;;5007123;28;59124;-59
2023/06/14 11:38:44;;;;;;;0.80;0.80;;;;;;;;;;5008312;28;58247;-59
2023/06/14 11:41:10;;;;;;;1.27;1.17;;;;;;;;;;5007549;28;58374;-58
2023/06/14 11:43:36;;;;;;;0.60;0.60;;;;;;;;;;5006096;28;58591;-59
2023/06/14 11:46:01;;;;;;;0.90;0.90;;;;;;;;;;5004857;28;58749;-59
2023/06/14 11:48:40;;;;;;;1.27;0.85;;;;;;;;;;5001393;28;59229;-59
2023/06/14 11:51:05;;;;;;;1.25;0.60;;;;;;;;;;5001945;28;58489;-58
2023/06/14 11:53:30;;;;;;;1.37;0.77;;;;;;;;;;5000914;28;59102;-59
2023/06/14 11:55:56;;;;;;;2.50;1.83;;;;;;;;;;5001234;28;58755;-59
2023/06/14 11:58:21;;;;;;;0.87;0.80;;;;;;;;;;5007912;28;58968;-59
2023/06/14 12:00:48;;;;;;;1.17;1.07;;;;;;;;;;5002190;28;58758;-59
2023/06/14 12:03:13;;;;;;;3.80;0.93;;;;;;;;;;5001674;28;58769;-59
2023/06/14 12:05:38;;;;;;;3.83;0.80;;;;;;;;;;5004342;28;58734;-59
2023/06/14 12:08:07;;;;;;;3.88;1.13;;;;;;;;;;5008479;28;58459;-61
2023/06/14 12:10:39;;;;;;;1.50;0.68;;;;;;;;;;5004653;28;58646;-61
2023/06/14 12:13:05;;;;;;;2.00;1.02;;;;;;;;;;5007655;28;58669;-59
2023/06/14 12:15:31;;;;;;;3.25;1.02;;;;;;;;;;5006865;28;58394;-59
2023/06/14 12:17:57;;;;;;;2.42;0.73;;;;;;;;;;5007868;28;58703;-60
2023/06/14 12:20:23;;;;;;;1.80;0.70;;;;;;;;;;5007586;28;58898;-68
2023/06/14 12:22:50;;;;;;;2.58;1.05;;;;;;;;;;5007338;28;59410;-64
2023/06/14 12:25:32;;;;;;;8.57;2.30;;;;;;;;;;5005604;28;58716;-60
2023/06/14 12:27:58;;;;;;;7.25;2.63;;;;;;;;;;5021553;28;59995;-57
2023/06/14 12:30:23;;;;;;;3.25;1.00;;;;;;;;;;5006935;28;58646;-63
2023/06/14 12:32:48;;;;;;;1.87;1.00;;;;;;;;;;5009148;28;58900;-64
2023/06/14 12:35:15;;;;;;;4.93;1.10;;;;;;;;;;5004675;28;58386;-64
2023/06/14 12:37:40;;;;;;;5.43;1.23;;;;;;;;;;5009013;28;58307;-61
2023/06/14 12:40:05;;;;;;;4.13;1.38;;;;;;;;;;5006823;28;58253;-65
2023/06/14 12:42:31;;;;;;;3.65;1.83;;;;;;;;;;5006066;28;58595;-64
2023/06/14 12:44:56;;;;;;;2.58;0.75;;;;;;;;;;5004075;28;58727;-63
2023/06/14 12:47:21;;;;;;;1.38;1.10;;;;;;;;;;5004241;28;57821;-61
2023/06/14 12:49:46;;;;;;;4.78;1.02;;;;;;;;;;5008453;28;58339;-63
2023/06/14 12:52:12;;;;;;;2.75;1.08;;;;;;;;;;5009509;28;57821;-64
2023/06/14 12:54:39;;;;;;;2.97;0.90;;;;;;;;;;5007778;28;58407;-63
2023/06/14 12:57:04;;;;;;;1.75;1.05;;;;;;;;;;5009849;28;59370;-63
2023/06/14 12:59:32;;;;;;;3.15;1.20;;;;;;;;;;5010302;28;58491;-65
2023/06/14 13:01:57;;;;;;;8.23;0.95;;;;;;;;;;5007506;28;59849;-63
2023/06/14 13:04:23;;;;;;;2.95;1.15;;;;;;;;;;5010408;28;58641;-65
2023/06/14 13:06:48;;;;;;;2.40;1.00;;;;;;;;;;5009425;28;58066;-66
2023/06/14 13:09:15;;;;;;;0.63;0.50;;;;;;;;;;5009499;28;58586;-66
2023/06/14 13:11:40;;;;;;;2.05;0.70;;;;;;;;;;5009771;28;57985;-63
2023/06/14 13:14:05;;;;;;;1.10;0.80;;;;;;;;;;5008708;28;58672;-66
2023/06/14 13:16:30;;;;;;;1.77;0.70;;;;;;;;;;5007147;28;58583;-62
2023/06/14 13:18:56;;;;;;;1.00;0.90;;;;;;;;;;5007543;28;58344;-62
2023/06/14 13:21:21;;;;;;;1.23;0.90;;;;;;;;;;5007458;28;58875;-67
2023/06/14 13:23:46;;;;;;;0.80;0.80;;;;;;;;;;5009579;28;58585;-66
2023/06/14 13:26:12;;;;;;;1.23;0.63;;;;;;;;;;5008852;28;58804;-61
2023/06/14 13:28:37;;;;;;;4.30;1.48;;;;;;;;;;5007432;28;58638;-66
2023/06/14 13:31:02;;;;;;;1.90;1.60;;;;;;;;;;5009035;28;58756;-65
2023/06/14 13:33:27;;;;;;;0.97;0.97;;;;;;;;;;5009326;28;58948;-65
2023/06/14 13:35:53;;;;;;;2.10;1.03;;;;;;;;;;5009373;28;58766;-63
2023/06/14 13:38:18;;;;;;;1.77;1.02;;;;;;;;;;5007869;28;58376;-65
2023/06/14 13:40:43;;;;;;;0.90;0.67;;;;;;;;;;5006090;28;58810;-65
2023/06/14 13:43:08;;;;;;;0.77;0.50;;;;;;;;;;5007848;28;58460;-61
2023/06/14 13:45:35;;;;;;;0.90;0.80;;;;;;;;;;5007980;28;58468;-62
2023/06/14 13:48:00;;;;;;;1.52;0.70;;;;;;;;;;5004399;28;58811;-61
2023/06/14 13:50:25;;;;;;;1.77;0.83;;;;;;;;;;5007468;28;58464;-61
2023/06/14 13:52:50;;;;;;;1.07;0.87;;;;;;;;;;5004513;28;58411;-61
2023/06/14 13:55:16;;;;;;;1.30;0.90;;;;;;;;;;5002550;28;58653;-61
2023/06/14 13:57:41;;;;;;;1.40;0.83;;;;;;;;;;5003725;28;58666;-61
2023/06/14 14:00:08;;;;;;;1.17;0.50;;;;;;;;;;5006553;28;58477;-63
2023/06/14 14:02:33;;;;;;;1.30;0.77;;;;;;;;;;5004357;28;58740;-67
2023/06/14 14:04:59;;;;;;;2.30;1.07;;;;;;;;;;5007937;28;58523;-65
2023/06/14 14:07:24;;;;;;;1.92;0.65;;;;;;;;;;5007821;28;58639;-63
2023/06/14 14:09:49;;;;;;;1.48;1.30;;;;;;;;;;5005289;28;58251;-65
2023/06/14 14:12:15;;;;;;;2.75;1.10;;;;;;;;;;5004536;28;58848;-65
2023/06/14 14:14:40;;;;;;;1.30;0.80;;;;;;;;;;5009330;28;58573;-62
2023/06/14 14:17:06;;;;;;;1.95;0.82;;;;;;;;;;5005867;28;58046;-61
2023/06/14 14:19:31;;;;;;;1.40;0.75;;;;;;;;;;5004435;28;59147;-66
2023/06/14 14:21:56;;;;;;;2.03;1.13;;;;;;;;;;5001202;28;58969;-65
2023/06/14 14:24:22;;;;;;;2.57;0.90;;;;;;;;;;5004848;28;57980;-68
2023/06/14 14:26:48;;;;;;;3.20;1.00;;;;;;;;;;5008337;28;58097;-66
2023/06/14 14:29:13;;;;;;;1.33;1.23;;;;;;;;;;5007028;28;58665;-68
2023/06/14 14:31:38;;;;;;;1.00;0.77;;;;;;;;;;5006967;28;58841;-67
2023/06/14 14:34:04;;;;;;;0.70;0.70;;;;;;;;;;5004729;28;58694;-67
2023/06/14 14:36:29;;;;;;;2.00;1.00;;;;;;;;;;5006117;28;58735;-66